sensor_id;sensor_type;location;lat;lon;timestamp;temperature;humidity
43185;DHT22;28803;52.308;19.096;2024-03-25T00:00:24;3.50;1.00
43185;DHT22;28803;52.308;19.096;2024-03-25T00:03:10;3.40;1.00
43185;DHT22;28803;52.308;19.096;2024-03-25T00:05:37;3.50;1.00
43185;DHT22;28803;52.308;19.096;2024-03-25T00:08:04;3.60;1.00
43185;DHT22;28803;52.308;19.096;2024-03-25T00:10:30;3.60;1.00
43185;DHT22;28803;52.308;19.096;2024-03-25T00:12:56;3.60;1.00
43185;DHT22;28803;52.308;19.096;2024-03-25T00:15:23;3.60;1.00
43185;DHT22;28803;52.308;19.096;2024-03-25T00:17:51;3.60;1.00
43185;DHT22;28803;52.308;19.096;2024-03-25T00:20:18;3.70;1.00
43185;DHT22;28803;52.308;19.096;2024-03-25T00:22:44;3.70;1.00
43185;DHT22;28803;52.308;19.096;2024-03-25T00:25:11;3.70;1.00
43185;DHT22;28803;52.308;19.096;2024-03-25T00:27:37;3.80;1.00
43185;DHT22;28803;52.308;19.096;2024-03-25T00:30:04;3.70;1.00
43185;DHT22;28803;52.308;19.096;2024-03-25T00:32:31;3.80;1.00
43185;DHT22;28803;52.308;19.096;2024-03-25T00:34:57;3.80;1.00
43185;DHT22;28803;52.308;19.096;2024-03-25T00:37:23;3.80;1.00
43185;DHT22;28803;52.308;19.096;2024-03-25T00:39:50;3.80;1.00
43185;DHT22;28803;52.308;19.096;2024-03-25T00:42:16;3.80;1.00
43185;DHT22;28803;52.308;19.096;2024-03-25T00:44:43;3.80;1.00
43185;DHT22;28803;52.308;19.096;2024-03-25T00:47:09;3.80;1.00
43185;DHT22;28803;52.308;19.096;2024-03-25T00:49:35;3.80;1.00
43185;DHT22;28803;52.308;19.096;2024-03-25T00:52:02;3.80;1.00
43185;DHT22;28803;52.308;19.096;2024-03-25T00:54:28;3.80;1.00
43185;DHT22;28803;52.308;19.096;2024-03-25T00:56:54;3.80;1.00
43185;DHT22;28803;52.308;19.096;2024-03-25T00:59:21;3.80;1.00
43185;DHT22;28803;52.308;19.096;2024-03-25T01:01:47;3.80;1.00
43185;DHT22;28803;52.308;19.096;2024-03-25T01:04:13;3.80;1.00
43185;DHT22;28803;52.308;19.096;2024-03-25T01:06:39;3.80;1.00
43185;DHT22;28803;52.308;19.096;2024-03-25T01:09:06;3.80;1.00
43185;DHT22;28803;52.308;19.096;2024-03-25T01:11:33;3.80;1.00
43185;DHT22;28803;52.308;19.096;2024-03-25T01:14:00;3.90;1.00
43185;DHT22;28803;52.308;19.096;2024-03-25T01:16:26;3.80;1.00
43185;DHT22;28803;52.308;19.096;2024-03-25T01:18:53;3.90;1.00
43185;DHT22;28803;52.308;19.096;2024-03-25T01:21:19;3.90;1.00
43185;DHT22;28803;52.308;19.096;2024-03-25T01:23:46;3.90;1.00
43185;DHT22;28803;52.308;19.096;2024-03-25T01:26:12;3.80;1.00
43185;DHT22;28803;52.308;19.096;2024-03-25T01:28:38;3.80;1.00
43185;DHT22;28803;52.308;19.096;2024-03-25T01:31:04;3.80;1.00
43185;DHT22;28803;52.308;19.096;2024-03-25T01:33:30;3.80;1.00
43185;DHT22;28803;52.308;19.096;2024-03-25T01:35:57;3.80;1.00
43185;DHT22;28803;52.308;19.096;2024-03-25T01:38:23;3.80;1.00
43185;DHT22;28803;52.308;19.096;2024-03-25T01:40:49;3.80;1.00
43185;DHT22;28803;52.308;19.096;2024-03-25T01:43:15;3.80;1.00
43185;DHT22;28803;52.308;19.096;2024-03-25T01:45:42;3.80;1.00
43185;DHT22;28803;52.308;19.096;2024-03-25T01:48:09;3.80;1.00
43185;DHT22;28803;52.308;19.096;2024-03-25T01:50:41;3.90;1.00
43185;DHT22;28803;52.308;19.096;2024-03-25T01:53:08;3.80;1.00
43185;DHT22;28803;52.308;19.096;2024-03-25T01:55:35;3.80;1.00
43185;DHT22;28803;52.308;19.096;2024-03-25T01:58:04;3.80;1.00
43185;DHT22;28803;52.308;19.096;2024-03-25T02:00:31;3.80;1.00
43185;DHT22;28803;52.308;19.096;2024-03-25T02:02:58;3.80;1.00
43185;DHT22;28803;52.308;19.096;2024-03-25T02:05:25;3.80;1.00
43185;DHT22;28803;52.308;19.096;2024-03-25T02:07:52;3.80;1.00
43185;DHT22;28803;52.308;19.096;2024-03-25T02:10:19;3.80;1.00
43185;DHT22;28803;52.308;19.096;2024-03-25T02:12:47;3.80;1.00
43185;DHT22;28803;52.308;19.096;2024-03-25T02:15:13;3.80;1.00
43185;DHT22;28803;52.308;19.096;2024-03-25T02:17:40;3.80;1.00
43185;DHT22;28803;52.308;19.096;2024-03-25T02:20:07;3.80;1.00
43185;DHT22;28803;52.308;19.096;2024-03-25T02:22:36;3.70;1.00
43185;DHT22;28803;52.308;19.096;2024-03-25T02:25:07;3.70;1.00
43185;DHT22;28803;52.308;19.096;2024-03-25T02:27:38;3.60;1.00
43185;DHT22;28803;52.308;19.096;2024-03-25T02:32:32;3.50;1.00
43185;DHT22;28803;52.308;19.096;2024-03-25T02:34:58;3.40;1.00
43185;DHT22;28803;52.308;19.096;2024-03-25T02:37:26;3.30;1.00
43185;DHT22;28803;52.308;19.096;2024-03-25T02:39:57;3.20;1.00
43185;DHT22;28803;52.308;19.096;2024-03-25T02:42:28;3.10;1.00
43185;DHT22;28803;52.308;19.096;2024-03-25T02:44:55;3.10;1.00
43185;DHT22;28803;52.308;19.096;2024-03-25T02:47:22;3.20;1.00
43185;DHT22;28803;52.308;19.096;2024-03-25T02:49:48;3.20;1.00
43185;DHT22;28803;52.308;19.096;2024-03-25T02:52:15;3.30;1.00
43185;DHT22;28803;52.308;19.096;2024-03-25T02:54:41;3.40;1.00
43185;DHT22;28803;52.308;19.096;2024-03-25T02:57:07;3.50;1.00
43185;DHT22;28803;52.308;19.096;2024-03-25T02:59:34;3.50;1.00
43185;DHT22;28803;52.308;19.096;2024-03-25T03:02:00;3.40;1.00
43185;DHT22;28803;52.308;19.096;2024-03-25T03:04:26;3.50;1.00
43185;DHT22;28803;52.308;19.096;2024-03-25T03:06:52;3.40;1.00
43185;DHT22;28803;52.308;19.096;2024-03-25T03:09:19;3.40;1.00
43185;DHT22;28803;52.308;19.096;2024-03-25T03:11:45;3.50;1.00
43185;DHT22;28803;52.308;19.096;2024-03-25T03:14:11;3.50;1.00
43185;DHT22;28803;52.308;19.096;2024-03-25T03:16:38;3.40;1.00
43185;DHT22;28803;52.308;19.096;2024-03-25T03:19:04;3.50;1.00
43185;DHT22;28803;52.308;19.096;2024-03-25T03:21:31;3.50;1.00
43185;DHT22;28803;52.308;19.096;2024-03-25T03:23:57;3.50;1.00
43185;DHT22;28803;52.308;19.096;2024-03-25T03:26:23;3.50;1.00
43185;DHT22;28803;52.308;19.096;2024-03-25T03:28:53;3.50;1.00
43185;DHT22;28803;52.308;19.096;2024-03-25T03:31:20;3.50;1.00
43185;DHT22;28803;52.308;19.096;2024-03-25T03:33:49;3.60;1.00
43185;DHT22;28803;52.308;19.096;2024-03-25T03:36:17;3.50;1.00
43185;DHT22;28803;52.308;19.096;2024-03-25T03:38:44;3.40;1.00
43185;DHT22;28803;52.308;19.096;2024-03-25T03:41:10;3.20;1.00
43185;DHT22;28803;52.308;19.096;2024-03-25T03:43:37;3.20;1.00
43185;DHT22;28803;52.308;19.096;2024-03-25T03:46:04;3.10;1.00
43185;DHT22;28803;52.308;19.096;2024-03-25T03:48:30;3.10;1.00
43185;DHT22;28803;52.308;19.096;2024-03-25T03:50:57;3.20;1.00
43185;DHT22;28803;52.308;19.096;2024-03-25T03:53:23;3.30;1.00
43185;DHT22;28803;52.308;19.096;2024-03-25T03:55:57;3.40;1.00
43185;DHT22;28803;52.308;19.096;2024-03-25T03:58:24;3.40;1.00
43185;DHT22;28803;52.308;19.096;2024-03-25T04:00:51;3.50;1.00
43185;DHT22;28803;52.308;19.096;2024-03-25T04:03:19;3.50;1.00
43185;DHT22;28803;52.308;19.096;2024-03-25T04:05:45;3.50;1.00
43185;DHT22;28803;52.308;19.096;2024-03-25T04:08:11;3.60;1.00
43185;DHT22;28803;52.308;19.096;2024-03-25T04:10:39;3.60;1.00
43185;DHT22;28803;52.308;19.096;2024-03-25T04:13:06;3.60;1.00
43185;DHT22;28803;52.308;19.096;2024-03-25T04:15:35;3.70;1.00
43185;DHT22;28803;52.308;19.096;2024-03-25T04:18:01;3.70;1.00
43185;DHT22;28803;52.308;19.096;2024-03-25T04:20:28;3.80;1.00
43185;DHT22;28803;52.308;19.096;2024-03-25T04:22:55;3.80;1.00
43185;DHT22;28803;52.308;19.096;2024-03-25T04:25:22;3.80;1.00
43185;DHT22;28803;52.308;19.096;2024-03-25T04:27:48;3.80;1.00
43185;DHT22;28803;52.308;19.096;2024-03-25T04:30:15;3.90;1.00
43185;DHT22;28803;52.308;19.096;2024-03-25T04:32:42;3.90;1.00
43185;DHT22;28803;52.308;19.096;2024-03-25T04:35:09;4.00;1.00
43185;DHT22;28803;52.308;19.096;2024-03-25T04:37:35;4.00;1.00
43185;DHT22;28803;52.308;19.096;2024-03-25T04:40:02;3.90;1.00
43185;DHT22;28803;52.308;19.096;2024-03-25T04:42:29;4.00;1.00
43185;DHT22;28803;52.308;19.096;2024-03-25T04:44:56;4.00;1.00
43185;DHT22;28803;52.308;19.096;2024-03-25T04:47:23;4.00;1.00
43185;DHT22;28803;52.308;19.096;2024-03-25T04:49:49;4.00;1.00
43185;DHT22;28803;52.308;19.096;2024-03-25T04:52:16;4.10;1.00
43185;DHT22;28803;52.308;19.096;2024-03-25T04:54:49;4.10;1.00
43185;DHT22;28803;52.308;19.096;2024-03-25T04:57:15;4.10;1.00
43185;DHT22;28803;52.308;19.096;2024-03-25T04:59:42;4.20;1.00
43185;DHT22;28803;52.308;19.096;2024-03-25T05:02:08;4.20;1.00
43185;DHT22;28803;52.308;19.096;2024-03-25T05:04:35;4.30;1.00
43185;DHT22;28803;52.308;19.096;2024-03-25T05:07:01;4.30;1.00
43185;DHT22;28803;52.308;19.096;2024-03-25T05:09:27;4.40;1.00
43185;DHT22;28803;52.308;19.096;2024-03-25T05:11:54;4.40;1.00
43185;DHT22;28803;52.308;19.096;2024-03-25T05:14:20;4.60;1.00
43185;DHT22;28803;52.308;19.096;2024-03-25T05:16:46;4.70;1.00
43185;DHT22;28803;52.308;19.096;2024-03-25T05:19:13;4.90;1.00
43185;DHT22;28803;52.308;19.096;2024-03-25T05:21:39;4.90;1.00
43185;DHT22;28803;52.308;19.096;2024-03-25T05:24:05;5.00;1.00
43185;DHT22;28803;52.308;19.096;2024-03-25T05:26:31;5.00;1.00
43185;DHT22;28803;52.308;19.096;2024-03-25T05:28:58;5.00;1.00
43185;DHT22;28803;52.308;19.096;2024-03-25T05:31:24;4.90;1.00
43185;DHT22;28803;52.308;19.096;2024-03-25T05:33:52;5.00;1.00
43185;DHT22;28803;52.308;19.096;2024-03-25T05:36:18;5.00;1.00
43185;DHT22;28803;52.308;19.096;2024-03-25T05:38:44;5.10;1.00
43185;DHT22;28803;52.308;19.096;2024-03-25T05:41:11;5.10;1.00
43185;DHT22;28803;52.308;19.096;2024-03-25T05:43:37;5.10;1.00
43185;DHT22;28803;52.308;19.096;2024-03-25T05:46:04;5.10;1.00
43185;DHT22;28803;52.308;19.096;2024-03-25T05:48:31;5.00;1.00
43185;DHT22;28803;52.308;19.096;2024-03-25T05:51:01;5.00;1.00
43185;DHT22;28803;52.308;19.096;2024-03-25T05:53:29;4.90;1.00
43185;DHT22;28803;52.308;19.096;2024-03-25T05:55:55;4.80;1.00
43185;DHT22;28803;52.308;19.096;2024-03-25T05:58:22;4.70;1.00
43185;DHT22;28803;52.308;19.096;2024-03-25T06:00:49;4.60;1.00
43185;DHT22;28803;52.308;19.096;2024-03-25T06:03:16;4.60;1.00
43185;DHT22;28803;52.308;19.096;2024-03-25T06:05:44;4.60;1.00
43185;DHT22;28803;52.308;19.096;2024-03-25T06:08:11;4.60;1.00
43185;DHT22;28803;52.308;19.096;2024-03-25T06:11:01;4.60;1.00
43185;DHT22;28803;52.308;19.096;2024-03-25T06:13:28;4.60;1.00
43185;DHT22;28803;52.308;19.096;2024-03-25T06:15:54;4.60;1.00
43185;DHT22;28803;52.308;19.096;2024-03-25T06:18:20;4.70;1.00
43185;DHT22;28803;52.308;19.096;2024-03-25T06:20:47;4.70;1.00
43185;DHT22;28803;52.308;19.096;2024-03-25T06:23:24;4.70;1.00
43185;DHT22;28803;52.308;19.096;2024-03-25T06:25:52;4.70;1.00
43185;DHT22;28803;52.308;19.096;2024-03-25T06:28:20;4.70;1.00
43185;DHT22;28803;52.308;19.096;2024-03-25T06:30:47;4.70;1.00
43185;DHT22;28803;52.308;19.096;2024-03-25T06:33:32;4.60;1.00
43185;DHT22;28803;52.308;19.096;2024-03-25T06:36:18;4.50;1.00
43185;DHT22;28803;52.308;19.096;2024-03-25T06:38:44;4.50;1.00
43185;DHT22;28803;52.308;19.096;2024-03-25T06:41:11;4.50;1.00
43185;DHT22;28803;52.308;19.096;2024-03-25T06:43:37;4.40;1.00
43185;DHT22;28803;52.308;19.096;2024-03-25T06:46:05;4.40;1.00
43185;DHT22;28803;52.308;19.096;2024-03-25T06:48:31;4.40;1.00
43185;DHT22;28803;52.308;19.096;2024-03-25T06:50:58;4.40;1.00
43185;DHT22;28803;52.308;19.096;2024-03-25T06:53:25;4.40;1.00
43185;DHT22;28803;52.308;19.096;2024-03-25T06:55:59;4.40;1.00
43185;DHT22;28803;52.308;19.096;2024-03-25T06:58:27;4.40;1.00
43185;DHT22;28803;52.308;19.096;2024-03-25T07:00:54;4.50;1.00
43185;DHT22;28803;52.308;19.096;2024-03-25T07:03:23;4.60;1.00
43185;DHT22;28803;52.308;19.096;2024-03-25T07:05:51;4.60;1.00
43185;DHT22;28803;52.308;19.096;2024-03-25T07:08:21;4.60;1.00
43185;DHT22;28803;52.308;19.096;2024-03-25T07:10:48;4.70;1.00
43185;DHT22;28803;52.308;19.096;2024-03-25T07:13:15;4.70;1.00
43185;DHT22;28803;52.308;19.096;2024-03-25T07:15:42;4.80;1.00
43185;DHT22;28803;52.308;19.096;2024-03-25T07:18:10;4.90;1.00
43185;DHT22;28803;52.308;19.096;2024-03-25T07:20:39;4.90;1.00
43185;DHT22;28803;52.308;19.096;2024-03-25T07:23:05;4.90;1.00
43185;DHT22;28803;52.308;19.096;2024-03-25T07:25:31;4.90;1.00
43185;DHT22;28803;52.308;19.096;2024-03-25T07:27:58;4.90;1.00
43185;DHT22;28803;52.308;19.096;2024-03-25T07:30:27;5.00;1.00
43185;DHT22;28803;52.308;19.096;2024-03-25T07:32:57;5.00;1.00
43185;DHT22;28803;52.308;19.096;2024-03-25T07:35:24;5.00;1.00
43185;DHT22;28803;52.308;19.096;2024-03-25T07:37:52;5.00;1.00
43185;DHT22;28803;52.308;19.096;2024-03-25T07:40:19;4.90;1.00
43185;DHT22;28803;52.308;19.096;2024-03-25T07:42:45;4.90;1.00
43185;DHT22;28803;52.308;19.096;2024-03-25T07:45:11;4.90;1.00
43185;DHT22;28803;52.308;19.096;2024-03-25T07:47:38;4.90;1.00
43185;DHT22;28803;52.308;19.096;2024-03-25T07:50:05;5.10;1.00
43185;DHT22;28803;52.308;19.096;2024-03-25T07:52:32;5.20;1.00
43185;DHT22;28803;52.308;19.096;2024-03-25T07:54:58;5.70;1.00
43185;DHT22;28803;52.308;19.096;2024-03-25T07:57:25;6.10;1.00
43185;DHT22;28803;52.308;19.096;2024-03-25T07:59:51;6.40;1.00
43185;DHT22;28803;52.308;19.096;2024-03-25T08:02:18;6.50;1.00
43185;DHT22;28803;52.308;19.096;2024-03-25T08:04:44;6.60;1.00
43185;DHT22;28803;52.308;19.096;2024-03-25T08:07:10;6.70;1.00
43185;DHT22;28803;52.308;19.096;2024-03-25T08:09:36;6.50;1.00
43185;DHT22;28803;52.308;19.096;2024-03-25T08:12:03;6.40;1.00
43185;DHT22;28803;52.308;19.096;2024-03-25T08:14:29;6.30;1.00
43185;DHT22;28803;52.308;19.096;2024-03-25T08:16:56;6.20;1.00
43185;DHT22;28803;52.308;19.096;2024-03-25T08:19:22;6.30;1.00
43185;DHT22;28803;52.308;19.096;2024-03-25T08:21:48;6.30;1.00
43185;DHT22;28803;52.308;19.096;2024-03-25T08:24:15;6.30;1.00
43185;DHT22;28803;52.308;19.096;2024-03-25T08:26:42;6.40;1.00
43185;DHT22;28803;52.308;19.096;2024-03-25T08:29:08;6.50;1.00
43185;DHT22;28803;52.308;19.096;2024-03-25T08:31:34;6.60;1.00
43185;DHT22;28803;52.308;19.096;2024-03-25T08:34:01;6.60;1.00
43185;DHT22;28803;52.308;19.096;2024-03-25T08:36:27;6.70;1.00
43185;DHT22;28803;52.308;19.096;2024-03-25T08:38:53;6.80;1.00
43185;DHT22;28803;52.308;19.096;2024-03-25T08:41:20;6.80;1.00
43185;DHT22;28803;52.308;19.096;2024-03-25T08:43:46;6.80;1.00
43185;DHT22;28803;52.308;19.096;2024-03-25T08:46:12;6.90;1.00
43185;DHT22;28803;52.308;19.096;2024-03-25T08:48:38;6.90;1.00
43185;DHT22;28803;52.308;19.096;2024-03-25T08:51:05;6.90;1.00
43185;DHT22;28803;52.308;19.096;2024-03-25T08:53:31;7.00;1.00
43185;DHT22;28803;52.308;19.096;2024-03-25T08:55:58;7.00;1.00
43185;DHT22;28803;52.308;19.096;2024-03-25T08:58:24;7.20;1.00
43185;DHT22;28803;52.308;19.096;2024-03-25T09:00:50;7.30;1.00
43185;DHT22;28803;52.308;19.096;2024-03-25T09:03:17;7.10;1.00
43185;DHT22;28803;52.308;19.096;2024-03-25T09:05:43;7.00;1.00
43185;DHT22;28803;52.308;19.096;2024-03-25T09:08:10;6.90;1.00
43185;DHT22;28803;52.308;19.096;2024-03-25T09:10:38;7.00;1.00
43185;DHT22;28803;52.308;19.096;2024-03-25T09:13:22;7.10;1.00
43185;DHT22;28803;52.308;19.096;2024-03-25T09:15:50;7.10;1.00
43185;DHT22;28803;52.308;19.096;2024-03-25T09:18:16;7.20;1.00
43185;DHT22;28803;52.308;19.096;2024-03-25T09:20:44;7.40;1.00
43185;DHT22;28803;52.308;19.096;2024-03-25T09:23:10;7.40;1.00
43185;DHT22;28803;52.308;19.096;2024-03-25T09:25:37;7.30;1.00
43185;DHT22;28803;52.308;19.096;2024-03-25T09:28:03;7.10;1.00
43185;DHT22;28803;52.308;19.096;2024-03-25T09:30:30;6.90;1.00
43185;DHT22;28803;52.308;19.096;2024-03-25T09:32:56;6.70;1.00
43185;DHT22;28803;52.308;19.096;2024-03-25T09:35:23;6.60;1.00
43185;DHT22;28803;52.308;19.096;2024-03-25T09:37:49;6.60;1.00
43185;DHT22;28803;52.308;19.096;2024-03-25T09:40:16;7.10;1.00
43185;DHT22;28803;52.308;19.096;2024-03-25T09:42:49;7.90;1.00
43185;DHT22;28803;52.308;19.096;2024-03-25T09:45:16;8.60;1.00
43185;DHT22;28803;52.308;19.096;2024-03-25T09:47:46;9.00;1.00
43185;DHT22;28803;52.308;19.096;2024-03-25T09:50:13;9.20;1.00
43185;DHT22;28803;52.308;19.096;2024-03-25T09:52:51;8.90;1.00
43185;DHT22;28803;52.308;19.096;2024-03-25T09:55:18;8.60;1.00
43185;DHT22;28803;52.308;19.096;2024-03-25T09:57:44;8.50;1.00
43185;DHT22;28803;52.308;19.096;2024-03-25T10:00:12;8.40;1.00
43185;DHT22;28803;52.308;19.096;2024-03-25T10:02:39;8.30;1.00
43185;DHT22;28803;52.308;19.096;2024-03-25T10:05:06;8.10;1.00
43185;DHT22;28803;52.308;19.096;2024-03-25T10:07:33;7.90;1.00
43185;DHT22;28803;52.308;19.096;2024-03-25T10:10:04;7.70;1.00
43185;DHT22;28803;52.308;19.096;2024-03-25T10:12:31;7.70;1.00
43185;DHT22;28803;52.308;19.096;2024-03-25T10:14:58;7.80;1.00
43185;DHT22;28803;52.308;19.096;2024-03-25T10:17:25;7.90;1.00
43185;DHT22;28803;52.308;19.096;2024-03-25T10:19:54;8.10;1.00
43185;DHT22;28803;52.308;19.096;2024-03-25T10:22:20;8.30;1.00
43185;DHT22;28803;52.308;19.096;2024-03-25T10:24:48;8.30;1.00
43185;DHT22;28803;52.308;19.096;2024-03-25T10:27:22;8.10;1.00
43185;DHT22;28803;52.308;19.096;2024-03-25T10:29:52;7.90;1.00
43185;DHT22;28803;52.308;19.096;2024-03-25T10:32:19;7.70;1.00
43185;DHT22;28803;52.308;19.096;2024-03-25T10:34:45;7.40;1.00
43185;DHT22;28803;52.308;19.096;2024-03-25T10:37:13;7.20;1.00
43185;DHT22;28803;52.308;19.096;2024-03-25T10:39:48;6.80;1.00
43185;DHT22;28803;52.308;19.096;2024-03-25T10:42:20;6.60;1.00
43185;DHT22;28803;52.308;19.096;2024-03-25T10:44:47;6.50;1.00
43185;DHT22;28803;52.308;19.096;2024-03-25T10:47:23;6.60;1.00
43185;DHT22;28803;52.308;19.096;2024-03-25T10:49:57;7.00;1.00
43185;DHT22;28803;52.308;19.096;2024-03-25T10:52:25;7.60;1.00
43185;DHT22;28803;52.308;19.096;2024-03-25T10:54:52;8.30;1.00
43185;DHT22;28803;52.308;19.096;2024-03-25T10:57:20;8.80;1.00
43185;DHT22;28803;52.308;19.096;2024-03-25T10:59:47;9.40;1.00
43185;DHT22;28803;52.308;19.096;2024-03-25T11:02:15;9.80;1.00
43185;DHT22;28803;52.308;19.096;2024-03-25T11:04:44;10.10;1.00
43185;DHT22;28803;52.308;19.096;2024-03-25T11:07:12;10.40;1.00
43185;DHT22;28803;52.308;19.096;2024-03-25T11:09:39;10.80;1.00
43185;DHT22;28803;52.308;19.096;2024-03-25T11:12:07;10.90;1.00
43185;DHT22;28803;52.308;19.096;2024-03-25T11:14:35;11.10;1.00
43185;DHT22;28803;52.308;19.096;2024-03-25T11:17:02;11.00;1.00
43185;DHT22;28803;52.308;19.096;2024-03-25T11:19:30;11.00;1.00
43185;DHT22;28803;52.308;19.096;2024-03-25T11:22:10;10.90;1.00
43185;DHT22;28803;52.308;19.096;2024-03-25T11:24:37;10.80;1.00
43185;DHT22;28803;52.308;19.096;2024-03-25T11:27:09;10.60;1.00
43185;DHT22;28803;52.308;19.096;2024-03-25T11:29:36;10.30;1.00
43185;DHT22;28803;52.308;19.096;2024-03-25T11:32:04;10.10;1.00
43185;DHT22;28803;52.308;19.096;2024-03-25T11:34:31;10.00;1.00
43185;DHT22;28803;52.308;19.096;2024-03-25T11:36:57;9.90;1.00
43185;DHT22;28803;52.308;19.096;2024-03-25T11:39:25;10.00;1.00
43185;DHT22;28803;52.308;19.096;2024-03-25T11:41:52;10.10;1.00
43185;DHT22;28803;52.308;19.096;2024-03-25T11:44:19;10.10;1.00
43185;DHT22;28803;52.308;19.096;2024-03-25T11:46:45;10.20;1.00
43185;DHT22;28803;52.308;19.096;2024-03-25T11:49:14;10.10;1.00
43185;DHT22;28803;52.308;19.096;2024-03-25T11:51:42;10.00;1.00
43185;DHT22;28803;52.308;19.096;2024-03-25T11:54:13;10.10;1.00
43185;DHT22;28803;52.308;19.096;2024-03-25T11:56:39;10.40;1.00
43185;DHT22;28803;52.308;19.096;2024-03-25T11:59:06;10.40;1.00
43185;DHT22;28803;52.308;19.096;2024-03-25T12:01:33;10.40;1.00
43185;DHT22;28803;52.308;19.096;2024-03-25T12:04:16;10.50;1.00
43185;DHT22;28803;52.308;19.096;2024-03-25T12:06:43;10.80;1.00
43185;DHT22;28803;52.308;19.096;2024-03-25T12:09:13;11.30;1.00
43185;DHT22;28803;52.308;19.096;2024-03-25T12:11:58;11.60;1.00
43185;DHT22;28803;52.308;19.096;2024-03-25T12:14:25;11.60;1.00
43185;DHT22;28803;52.308;19.096;2024-03-25T12:16:55;11.40;1.00
43185;DHT22;28803;52.308;19.096;2024-03-25T12:19:24;11.20;1.00
43185;DHT22;28803;52.308;19.096;2024-03-25T12:21:58;10.90;1.00
43185;DHT22;28803;52.308;19.096;2024-03-25T12:24:25;10.50;1.00
43185;DHT22;28803;52.308;19.096;2024-03-25T12:26:51;10.10;1.00
43185;DHT22;28803;52.308;19.096;2024-03-25T12:29:18;9.80;1.00
43185;DHT22;28803;52.308;19.096;2024-03-25T12:31:54;9.60;1.00
43185;DHT22;28803;52.308;19.096;2024-03-25T12:34:20;9.60;1.00
43185;DHT22;28803;52.308;19.096;2024-03-25T12:36:48;9.60;1.00
43185;DHT22;28803;52.308;19.096;2024-03-25T12:39:16;9.90;1.00
43185;DHT22;28803;52.308;19.096;2024-03-25T12:41:43;10.20;1.00
43185;DHT22;28803;52.308;19.096;2024-03-25T12:44:11;10.50;1.00
43185;DHT22;28803;52.308;19.096;2024-03-25T12:46:37;10.60;1.00
43185;DHT22;28803;52.308;19.096;2024-03-25T12:49:08;10.60;1.00
43185;DHT22;28803;52.308;19.096;2024-03-25T12:51:34;10.40;1.00
43185;DHT22;28803;52.308;19.096;2024-03-25T12:54:01;10.20;1.00
43185;DHT22;28803;52.308;19.096;2024-03-25T12:56:27;9.90;1.00
43185;DHT22;28803;52.308;19.096;2024-03-25T12:58:53;9.60;1.00
43185;DHT22;28803;52.308;19.096;2024-03-25T13:01:20;9.30;1.00
43185;DHT22;28803;52.308;19.096;2024-03-25T13:03:46;9.10;1.00
43185;DHT22;28803;52.308;19.096;2024-03-25T13:06:12;9.00;1.00
43185;DHT22;28803;52.308;19.096;2024-03-25T13:08:39;8.90;1.00
43185;DHT22;28803;52.308;19.096;2024-03-25T13:11:05;8.90;1.00
43185;DHT22;28803;52.308;19.096;2024-03-25T13:13:31;8.80;1.00
43185;DHT22;28803;52.308;19.096;2024-03-25T13:15:57;8.80;1.00
43185;DHT22;28803;52.308;19.096;2024-03-25T13:18:24;8.70;1.00
43185;DHT22;28803;52.308;19.096;2024-03-25T13:20:50;8.80;1.00
43185;DHT22;28803;52.308;19.096;2024-03-25T13:23:17;8.90;1.00
43185;DHT22;28803;52.308;19.096;2024-03-25T13:25:43;9.20;1.00
43185;DHT22;28803;52.308;19.096;2024-03-25T13:28:09;9.50;1.00
43185;DHT22;28803;52.308;19.096;2024-03-25T13:30:35;9.90;1.00
43185;DHT22;28803;52.308;19.096;2024-03-25T13:33:03;10.40;1.00
43185;DHT22;28803;52.308;19.096;2024-03-25T13:35:29;10.60;1.00
43185;DHT22;28803;52.308;19.096;2024-03-25T13:37:56;10.80;1.00
43185;DHT22;28803;52.308;19.096;2024-03-25T13:40:22;10.60;1.00
43185;DHT22;28803;52.308;19.096;2024-03-25T13:42:48;10.50;99.90
43185;DHT22;28803;52.308;19.096;2024-03-25T13:45:15;10.40;99.90
43185;DHT22;28803;52.308;19.096;2024-03-25T13:47:41;10.40;99.90
43185;DHT22;28803;52.308;19.096;2024-03-25T13:50:07;10.60;1.00
43185;DHT22;28803;52.308;19.096;2024-03-25T13:52:35;10.80;99.90
43185;DHT22;28803;52.308;19.096;2024-03-25T13:55:02;11.10;99.90
43185;DHT22;28803;52.308;19.096;2024-03-25T13:57:28;11.50;1.00
43185;DHT22;28803;52.308;19.096;2024-03-25T13:59:54;11.60;99.90
43185;DHT22;28803;52.308;19.096;2024-03-25T14:02:21;11.80;99.90
43185;DHT22;28803;52.308;19.096;2024-03-25T14:04:47;11.70;99.90
43185;DHT22;28803;52.308;19.096;2024-03-25T14:07:14;11.60;99.90
43185;DHT22;28803;52.308;19.096;2024-03-25T14:09:40;11.20;99.90
43185;DHT22;28803;52.308;19.096;2024-03-25T14:12:06;10.90;99.90
43185;DHT22;28803;52.308;19.096;2024-03-25T14:14:32;10.90;99.90
43185;DHT22;28803;52.308;19.096;2024-03-25T14:16:59;10.80;99.90
43185;DHT22;28803;52.308;19.096;2024-03-25T14:19:25;10.70;99.90
43185;DHT22;28803;52.308;19.096;2024-03-25T14:21:52;10.70;99.90
43185;DHT22;28803;52.308;19.096;2024-03-25T14:24:18;10.70;1.00
43185;DHT22;28803;52.308;19.096;2024-03-25T14:26:45;10.30;1.00
43185;DHT22;28803;52.308;19.096;2024-03-25T14:29:11;9.70;1.00
43185;DHT22;28803;52.308;19.096;2024-03-25T14:31:38;9.20;1.00
43185;DHT22;28803;52.308;19.096;2024-03-25T14:34:04;8.70;1.00
43185;DHT22;28803;52.308;19.096;2024-03-25T14:36:31;8.30;1.00
43185;DHT22;28803;52.308;19.096;2024-03-25T14:38:57;8.00;1.00
43185;DHT22;28803;52.308;19.096;2024-03-25T14:41:24;7.80;1.00
43185;DHT22;28803;52.308;19.096;2024-03-25T14:43:50;7.70;1.00
43185;DHT22;28803;52.308;19.096;2024-03-25T14:46:17;7.40;1.00
43185;DHT22;28803;52.308;19.096;2024-03-25T14:48:44;7.30;1.00
43185;DHT22;28803;52.308;19.096;2024-03-25T14:51:10;7.10;1.00
43185;DHT22;28803;52.308;19.096;2024-03-25T14:53:36;7.00;1.00
43185;DHT22;28803;52.308;19.096;2024-03-25T14:56:03;7.00;1.00
43185;DHT22;28803;52.308;19.096;2024-03-25T14:58:30;6.90;1.00
43185;DHT22;28803;52.308;19.096;2024-03-25T15:00:57;6.90;1.00
43185;DHT22;28803;52.308;19.096;2024-03-25T15:03:24;6.90;1.00
43185;DHT22;28803;52.308;19.096;2024-03-25T15:05:50;7.00;1.00
43185;DHT22;28803;52.308;19.096;2024-03-25T15:08:16;7.10;1.00
43185;DHT22;28803;52.308;19.096;2024-03-25T15:10:46;7.20;1.00
43185;DHT22;28803;52.308;19.096;2024-03-25T15:13:13;7.40;1.00
43185;DHT22;28803;52.308;19.096;2024-03-25T15:15:40;7.50;1.00
43185;DHT22;28803;52.308;19.096;2024-03-25T15:18:08;7.50;1.00
43185;DHT22;28803;52.308;19.096;2024-03-25T15:20:35;7.60;1.00
43185;DHT22;28803;52.308;19.096;2024-03-25T15:23:01;7.70;1.00
43185;DHT22;28803;52.308;19.096;2024-03-25T15:25:29;7.80;1.00
43185;DHT22;28803;52.308;19.096;2024-03-25T15:27:55;7.80;1.00
43185;DHT22;28803;52.308;19.096;2024-03-25T15:30:22;7.90;1.00
43185;DHT22;28803;52.308;19.096;2024-03-25T15:32:48;7.90;1.00
43185;DHT22;28803;52.308;19.096;2024-03-25T15:35:14;7.90;1.00
43185;DHT22;28803;52.308;19.096;2024-03-25T15:37:41;8.00;1.00
43185;DHT22;28803;52.308;19.096;2024-03-25T15:40:08;8.10;1.00
43185;DHT22;28803;52.308;19.096;2024-03-25T15:42:42;8.20;1.00
43185;DHT22;28803;52.308;19.096;2024-03-25T15:45:08;8.20;1.00